Flight Track Log - Related Links

Times and Time Zones

All times are in EDT time to prevent confusion due to time zone crossing. See the SWA3853 flight status page for this flight to view local times or setup timezone preferences in your user account.

Time Position Orientation Groundspeed Altitude Reporting Facility
EDT Latitude Longitude Course Direction KTS MPH feet Rate Location/Type
Fri 12:50:35 PM 36.1667 -86.6667 12° North 167 192 2,300  Level Nashville TRACON
Fri 12:51:35 PM 36.2333 -86.6833 349° North 254 292 4,400 2,550 Climbing Nashville TRACON
Fri 12:52:35 PM 36.2333 -86.7667 270° West 278 320 7,400 3,554 Climbing Nashville TRACON
Fri 12:53:45 PM 36.2350 -86.8808 271° West 302 348 12,100 3,415 Climbing Memphis Center
Fri 12:54:45 PM 36.2436 -86.9653 277° West 288 331 14,800 3,000 Climbing Memphis Center
Fri 12:55:45 PM 36.2544 -87.0575 278° West 281 323 18,100 2,600 Climbing Memphis Center
Fri 12:56:45 PM 36.2631 -87.1575 276° West 288 331 20,000 2,250 Climbing Memphis Center
Fri 12:57:45 PM 36.2764 -87.2650 279° West 314 361 22,600 1,650 Climbing Memphis Center
Fri 12:58:45 PM 36.2983 -87.3956 282° West 334 384 23,300 1,400 Climbing Memphis Center
Fri 12:59:45 PM 36.3222 -87.5236 283° West 372 428 25,400 1,850 Climbing Memphis Center
Fri 01:00:45 PM 36.3769 -87.6428 300° West 386 444 27,000 800 Climbing Memphis Center
Fri 01:01:45 PM 36.4317 -87.7622 300° West 403 464 27,000 350 Level Memphis Center
Fri 01:02:45 PM 36.4861 -87.8869 299° West 403 464 27,700 1,200 Climbing Memphis Center
Fri 01:03:45 PM 36.5469 -88.0064 302° West 403 464 29,400 2,000 Climbing Memphis Center
Fri 01:04:45 PM 36.6239 -88.1128 312° West 413 475 31,700 2,050 Climbing Memphis Center
Fri 01:05:45 PM 36.6881 -88.2067 310° West 413 475 33,500 1,800 Climbing Memphis Center
Fri 01:06:45 PM 36.7628 -88.3083 313° West 402 463 35,300 1,250 Climbing Memphis Center
Fri 01:07:45 PM 36.7878 -88.4372 284° West 370 426 36,000 350 Climbing Memphis Center
Fri 01:08:45 PM 36.8042 -88.5664 279° West 375 432 36,000  Level Memphis Center
Fri 01:09:45 PM 36.8206 -88.6931 279° West 375 432 36,000 900 Level Memphis Center
Fri 01:10:45 PM 36.8389 -88.8197 280° West 380 437 37,800 1,000 Climbing Memphis Center
Fri 01:11:45 PM 36.8550 -88.9386 280° West 368 423 38,000 100 Climbing Memphis Center
Fri 01:12:45 PM 36.8708 -89.0550 280° West 363 418 38,000  Level Memphis Center
Fri 01:13:45 PM 36.8867 -89.1767 279° West 358 412 38,000  Level Memphis Center
Fri 01:14:45 PM 36.9022 -89.2983 279° West 358 412 38,000  Level Memphis Center
Fri 01:15:45 PM 36.9178 -89.4175 279° West 353 406 38,000  Level Memphis Center
Fri 01:16:45 PM 36.9333 -89.5342 280° West 353 406 38,000  Level Memphis Center
Fri 01:17:45 PM 36.9486 -89.6561 279° West 353 406 38,000  Level Memphis Center
Fri 01:18:45 PM 36.9617 -89.7753 278° West 353 406 38,000  Level Memphis Center
Fri 01:19:45 PM 36.9769 -89.8919 279° West 353 406 38,000  Level Memphis Center
Fri 01:20:45 PM 36.9919 -90.0114 279° West 353 406 38,000  Level Memphis Center
Fri 01:21:45 PM 37.0047 -90.1308 278° West 353 406 38,000  Level Memphis Center
Fri 01:23:35 PM 37.0314 -90.3425 279° West 355 409 38,000  Level Kansas Center
Fri 01:24:39 PM 37.0464 -90.4656 279° West 357 411 38,000  Level Kansas Center
Fri 01:25:39 PM 37.0656 -90.6139 279° West 358 412 38,000  Level Kansas Center
Fri 01:26:41 PM 37.0800 -90.7378 278° West 359 413 38,000  Level Kansas Center
Fri 01:27:42 PM 37.0958 -90.8617 279° West 359 413 38,000  Level Kansas Center
Fri 01:28:46 PM 37.1058 -90.9892 276° West 362 417 38,000  Level Kansas Center
Fri 01:29:47 PM 37.1194 -91.1133 278° West 361 415 38,000  Level Kansas Center
Fri 01:30:51 PM 37.1361 -91.2386 280° West 362 417 38,000  Level Kansas Center
Fri 01:31:50 PM 37.1669 -91.3619 287° West 375 432 38,000  Level Kansas Center
Fri 01:32:54 PM 37.2244 -91.5039 297° West 380 437 38,000  Level Kansas Center
Fri 01:33:54 PM 37.2731 -91.6214 297° West 378 435 38,000  Level Kansas Center
Fri 01:35:00 PM 37.3217 -91.7377 298° West  Level FlightAware
Fri 01:35:59 PM 37.3706 -91.8592 298° West 381 438 38,000  Level Kansas Center
Fri 01:36:59 PM 37.4186 -91.9803 297° West 382 440 38,000  Level Kansas Center
Fri 01:38:04 PM 37.4672 -92.1006 297° West 383 441 38,000  Level Kansas Center
Fri 01:39:04 PM 37.5150 -92.2219 296° West 385 443 38,000  Level Kansas Center
Fri 01:40:08 PM 37.5644 -92.3433 297° West 385 443 38,000  Level Kansas Center
Fri 01:41:09 PM 37.6128 -92.4661 296° West 385 443 38,000  Level Kansas Center
Fri 01:42:10 PM 37.6614 -92.5881 297° West 385 443 38,000  Level Kansas Center
Fri 01:43:14 PM 37.7192 -92.7339 297° West 385 443 38,000  Level Kansas Center
Fri 01:44:14 PM 37.7692 -92.8589 297° West 387 445 38,000  Level Kansas Center
Fri 01:45:18 PM 37.8181 -92.9839 296° West 391 450 38,000  Level Kansas Center
Fri 01:46:18 PM 37.8661 -93.1075 296° West 391 450 38,000  Level Kansas Center
Fri 01:47:22 PM 37.9153 -93.2311 297° West 392 451 38,000  Level Kansas Center
Fri 01:48:22 PM 37.9631 -93.3539 296° West 389 448 38,000 -829 Level Kansas Center
Fri 01:49:25 PM 38.0097 -93.4758 296° West 385 443 36,300 -2,468 Descending Kansas Center
Fri 01:50:26 PM 38.0647 -93.6219 296° West 381 438 32,900 -2,784 Descending Kansas Center
Fri 01:51:30 PM 38.1172 -93.7478 298° West 398 458 30,500 -2,274 Descending Kansas Center
Fri 01:52:30 PM 38.2186 -93.8189 331° Northwest 414 476 28,200 -2,129 Descending Kansas Center
Fri 01:53:34 PM 38.3253 -93.8786 336° Northwest 416 479 26,100 -2,032 Descending Kansas Center
Fri 01:54:34 PM 38.4272 -93.9353 336° Northwest 404 465 24,000 -2,081 Descending Kansas Center
Fri 01:55:38 PM 38.5353 -93.9978 336° Northwest 388 447 21,800 -1,920 Descending Kansas Center
Fri 01:56:39 PM 38.6247 -94.0489 336° Northwest 371 427 20,000 -1,820 Descending Kansas Center
Fri 01:57:40 PM 38.7189 -94.1175 330° Northwest 348 400 18,100 -1,536 Descending Kansas Center
Fri 01:58:44 PM 38.7828 -94.1908 318° Northwest 324 373 16,800 -1,500 Descending Kansas Center
Fri 01:59:44 PM 38.8472 -94.2597 320° Northwest 316 364 15,000 -1,887 Descending Kansas Center
Fri 02:00:48 PM 38.9211 -94.3411 319° Northwest 314 361 12,900 -1,452 Descending Kansas Center
Fri 02:01:48 PM 38.9842 -94.4078 321° Northwest 308 354 12,000 -581 Descending Kansas Center
Fri 02:02:52 PM 39.0556 -94.4867 319° Northwest 304 350 11,700 -484 Descending Kansas Center
Fri 02:03:52 PM 39.1178 -94.5533 320° Northwest 303 349 11,000 -347 Descending Kansas Center
Fri 02:04:53 PM 39.2025 -94.5656 354° North 294 338 11,000 -720 Level Kansas Center
Fri 02:05:57 PM 39.2811 -94.5581 North 296 341 9,500 -1,728 Descending Kansas Center
Fri 02:06:58 PM 39.3694 -94.5533 North 286 329 7,400 -1,824 Descending Kansas Center
Fri 02:08:02 PM 39.4436 -94.5475 North 281 323 5,700 -1,403 Descending Kansas Center
Fri 02:09:02 PM 39.4914 -94.6064 316° Northwest 248 285 4,500 -1,082 Descending Kansas Center
Fri 02:10:04 PM 39.4569 -94.6550 227° Southwest 188 216 3,500 -732 Descending Kansas Center
Fri 02:11:05 PM 39.4100 -94.6714 195° South 151 174 3,000 -528 Descending Kansas Center
Fri 02:12:09 PM 39.3750 -94.6817 193° South 136 157 2,400 -672 Descending Kansas Center
Fri 02:13:10 PM 39.3367 -94.6931 193° South 127 146 1,600 -677 Descending Kansas Center
Fri 02:14:13 PM 39.3036 -94.7028 193° South 124 143 1,000 -571 Descending Kansas Center

Login

Don't have an account? Register now (free) for customized features, flight alerts, and more!